Ana Sayfa
METAR-TAF:

METAR-TAF

Havaalanları :

Pekin Başkent Uluslararası Havalimanı

Pekin, Çin

Enlem: 39-56N, Boylam: 116-17E, yükseklik: 55 m

Güncel hava durumu gözlemi

Rapor saat 23:00 UTC de 21 dakika önce yapıldı.
Rüzgar kuzeydan 6 kt
Sıcaklık 1°C
Nem 25%
Basınç 1029 hPa
Görüş mesafesi 10 km veya daha fazla
1500 m altında bulut yok ve kümülonimbus yok

METAR: ZBAA 202300Z 35003MPS CAVOK 01/M17 Q1029 NOSIG

Saat: 07:21 (23:21 UTC)

Tahmin

Rapor saat 15:20 UTC de 8 saat ve 1 dakika önce yapıldı.
Ayın 20'si saat 18 UTC'den ayın 21'si saat 18 UTC'ye kadar geçerli Tahmin
Rüzgar kuzeybatıdan 8 kt
Görüş mesafesi 10 km veya daha fazla
1500 m altında bulut yok ve kümülonimbus yok

TAF: ZBAA 201520Z 2018/2118 32004MPS CAVOK TX09/2107Z TNM02/21Z

4.000'den fazla havaalanı için hava durumu gözlemleri ve tahminleri (METAR ve TAF raporları).

Kullanılabilir istasyonlar harita üzerinde sarı ve kırmızı noktalarla gösterilir.

İstasyonun adını görmek için fareyi noktanın üzerinde gezdirin.

Sonrasında hava gözlem ve tahminlerini görmek için tıklayın.

Haritayı değiştirmek için: yaklaştırmak için siyah artı işaretli yeşil düğmeye ve uzaklaştırmak için de eksi işaretli düğmeye hızla tıklayın; bitişik haritalar için yeşil okları kullanın.


METAR-TAF: